Terminal Aerodrome Forecast
Issued by NWS

Home | Current Version | Previous Version | Text Only | Print | Product List | Glossary On
Versions: 1 2 3 4 5 6 7 8 9 10 11 12 13 14 15 16 17 18 19 20 21 22 23 24 25 26 27 28
000
FTUS46 KEKA 251739 CCA
TAFCEC
TAF COR
KCEC 251739Z 2518/2618 18006KT 1SM BR VCSH BKN002 BKN035
      TEMPO 2518/2520 3SM BR BKN003 BKN035
     FM252000 19009KT 6SM BR VCSH BKN005 BKN035
     FM252200 19010KT P6SM VCSH SCT006 BKN035 BKN250
     FM260400 18005KT 6SM BR OVC005
     FM261200 18005KT 2SM BR OVC003=

USA.gov is the U.S. government's official web portal to all federal, state and local government web resources and services.